Time;durP1;ratioP1;P1;durP2;ratioP2;P2;SDS_P1;SDS_P2;PMS_P1;PMS_P2;Temp;Humidity;BMP_temperature;BMP_pressure;BME280_temperature;BME280_humidity;BME280_pressure;Samples;Min_cycle;Max_cycle;Signal;HPM_P1;HPM_P2
2021/12/01 00:01:42;;;;;;;1.80;1.70;;;4.00;99.90;;;;;;4954675;28;20059;-69
2021/12/01 00:04:08;;;;;;;1.88;1.70;;;4.00;99.90;;;;;;4945944;28;20077;-69
2021/12/01 00:06:35;;;;;;;1.95;1.85;;;4.00;99.90;;;;;;4941948;28;20042;-69
2021/12/01 00:09:01;;;;;;;1.58;1.33;;;4.00;99.90;;;;;;4952924;28;20106;-69
2021/12/01 00:11:27;;;;;;;1.80;1.70;;;4.00;99.90;;;;;;4935050;28;20035;-69
2021/12/01 00:13:53;;;;;;;1.80;1.70;;;4.00;99.90;;;;;;4948203;29;20038;-69
2021/12/01 00:16:18;;;;;;;1.95;1.75;;;4.00;99.90;;;;;;4949150;28;20053;-70
2021/12/01 00:18:44;;;;;;;2.10;1.90;;;4.00;99.90;;;;;;4929605;29;20038;-70
2021/12/01 00:21:10;;;;;;;1.83;1.73;;;4.00;99.90;;;;;;4930804;28;20051;-69
2021/12/01 00:23:35;;;;;;;2.60;2.00;;;4.00;99.90;;;;;;4947302;28;20066;-69
2021/12/01 00:26:02;;;;;;;1.60;1.50;;;4.00;99.90;;;;;;4948465;28;20077;-69
2021/12/01 00:28:28;;;;;;;2.05;1.92;;;4.00;99.90;;;;;;4947007;28;20035;-70
2021/12/01 00:30:54;;;;;;;1.85;1.67;;;4.00;99.90;;;;;;4950697;28;20038;-69
2021/12/01 00:33:23;;;;;;;3.50;1.88;;;4.00;99.90;;;;;;4947862;28;20039;-69
2021/12/01 00:35:54;;;;;;;2.17;1.98;;;4.00;99.90;;;;;;4947137;28;20028;-69
2021/12/01 00:38:21;;;;;;;2.03;1.90;;;4.00;99.90;;;;;;4945232;28;20038;-69
2021/12/01 00:40:47;;;;;;;2.30;2.10;;;4.00;99.90;;;;;;4947444;28;20061;-69
2021/12/01 00:43:17;;;;;;;2.08;1.90;;;4.00;99.90;;;;;;4947996;28;20479;-70
2021/12/01 00:45:50;;;;;;;2.17;1.98;;;4.00;99.90;;;;;;4950438;29;20042;-69
2021/12/01 00:48:18;;;;;;;2.38;2.10;;;4.00;99.90;;;;;;4951579;28;20643;-70
2021/12/01 00:50:44;;;;;;;1.95;1.80;;;3.90;99.90;;;;;;4950629;29;20532;-70
2021/12/01 00:53:11;;;;;;;2.00;1.80;;;4.00;99.90;;;;;;4949249;28;20035;-69
2021/12/01 00:55:37;;;;;;;1.88;1.77;;;3.90;99.90;;;;;;4952311;28;20032;-69
2021/12/01 00:58:04;;;;;;;1.60;1.50;;;4.00;99.90;;;;;;4950336;29;20061;-70
2021/12/01 01:00:31;;;;;;;1.92;1.80;;;4.00;99.90;;;;;;4950489;29;20043;-71
2021/12/01 01:02:58;;;;;;;2.17;2.03;;;4.00;99.90;;;;;;4948694;28;20027;-69
2021/12/01 01:05:25;;;;;;;2.10;2.00;;;3.90;99.90;;;;;;4951376;28;20034;-70
2021/12/01 01:07:51;;;;;;;1.70;1.60;;;3.90;99.90;;;;;;4944425;28;20039;-69
2021/12/01 01:18:43;;;;;;;2.30;2.10;;;3.90;99.90;;;;;;4948258;29;20747;-70
2021/12/01 01:21:10;;;;;;;2.03;1.92;;;3.90;99.90;;;;;;4950107;28;20102;-70
2021/12/01 01:23:37;;;;;;;2.45;2.20;;;3.90;99.90;;;;;;4949251;28;20115;-69
2021/12/01 01:26:10;;;;;;;2.47;2.28;;;3.90;99.90;;;;;;4951112;28;20027;-70
2021/12/01 01:28:36;;;;;;;2.10;1.80;;;3.90;99.90;;;;;;4957201;28;20104;-69
2021/12/01 01:31:03;;;;;;;2.40;2.20;;;3.90;99.90;;;;;;4950449;28;20035;-69
2021/12/01 01:33:29;;;;;;;3.25;2.05;;;3.90;99.90;;;;;;4950511;29;20038;-70
2021/12/01 01:35:54;;;;;;;2.33;2.00;;;3.90;99.90;;;;;;4949336;28;20035;-70
2021/12/01 01:38:20;;;;;;;1.77;1.67;;;4.00;99.90;;;;;;4950290;28;20107;-69
2021/12/01 01:40:46;;;;;;;2.42;2.05;;;3.90;99.90;;;;;;4949406;28;20027;-69
2021/12/01 01:43:12;;;;;;;2.13;2.00;;;3.90;99.90;;;;;;4946143;28;20045;-69
2021/12/01 01:45:37;;;;;;;3.17;1.88;;;4.00;99.90;;;;;;4949781;29;20038;-69
2021/12/01 01:48:08;;;;;;;2.38;1.80;;;3.90;99.90;;;;;;4948862;29;20035;-69
2021/12/01 01:50:38;;;;;;;2.30;2.10;;;4.00;99.90;;;;;;4949958;29;20380;-69
2021/12/01 01:53:10;;;;;;;2.05;1.90;;;3.90;99.90;;;;;;4946473;29;20114;-69
2021/12/01 01:55:39;;;;;;;2.15;1.70;;;4.00;99.90;;;;;;4949332;28;20039;-70
2021/12/01 01:58:05;;;;;;;1.90;1.80;;;4.00;99.90;;;;;;4978225;28;20051;-70
2021/12/01 02:00:36;;;;;;;2.08;1.70;;;3.90;99.90;;;;;;4949249;28;20161;-69
2021/12/01 02:03:02;;;;;;;1.85;1.75;;;4.00;99.90;;;;;;4945969;28;20023;-68
2021/12/01 02:05:27;;;;;;;4.10;1.73;;;4.00;99.90;;;;;;4946145;29;20043;-69
2021/12/01 02:07:54;;;;;;;2.10;1.90;;;3.90;99.90;;;;;;4948706;28;20023;-71
2021/12/01 02:10:19;;;;;;;1.70;1.60;;;4.00;99.90;;;;;;4948970;28;20027;-67
2021/12/01 02:12:46;;;;;;;1.70;1.60;;;4.00;99.90;;;;;;4949727;28;20038;-67
2021/12/01 02:15:11;;;;;;;3.70;1.70;;;3.90;99.90;;;;;;4950278;28;20028;-68
2021/12/01 02:17:37;;;;;;;2.10;1.80;;;3.90;99.90;;;;;;4948614;28;20032;-71
2021/12/01 02:20:24;;;;;;;1.80;1.70;;;3.90;99.90;;;;;;4949552;28;20483;-68
2021/12/01 02:22:50;;;;;;;1.65;1.55;;;3.90;99.90;;;;;;4950036;28;20642;-68
2021/12/01 02:25:16;;;;;;;1.70;1.60;;;3.90;99.90;;;;;;4950606;28;20039;-70
2021/12/01 02:27:41;;;;;;;1.73;1.63;;;3.90;99.90;;;;;;4947941;29;20033;-68
2021/12/01 02:30:08;;;;;;;1.77;1.67;;;3.90;99.90;;;;;;4949761;28;20063;-70
2021/12/01 02:32:33;;;;;;;2.83;1.70;;;3.90;99.90;;;;;;4932403;28;20353;-68
2021/12/01 02:34:59;;;;;;;2.10;1.88;;;3.90;99.90;;;;;;4949535;28;20056;-72
2021/12/01 02:37:25;;;;;;;2.22;1.73;;;3.90;99.90;;;;;;4948744;28;20045;-72
2021/12/01 02:39:51;;;;;;;1.98;1.88;;;3.90;99.90;;;;;;4950188;28;20098;-71
2021/12/01 02:42:21;;;;;;;1.98;1.77;;;3.90;99.90;;;;;;4949671;28;20031;-71
2021/12/01 02:44:47;;;;;;;1.70;1.60;;;3.90;99.90;;;;;;4931772;28;20386;-68
2021/12/01 02:47:13;;;;;;;1.83;1.73;;;3.90;99.90;;;;;;4949163;28;20035;-68
2021/12/01 02:49:38;;;;;;;2.35;1.90;;;3.90;99.90;;;;;;4948105;29;20031;-68
2021/12/01 02:52:04;;;;;;;1.90;1.70;;;4.00;99.90;;;;;;4948721;29;20043;-68
2021/12/01 02:54:30;;;;;;;2.88;1.88;;;4.00;99.90;;;;;;5019957;23;20910;-67
2021/12/01 02:56:57;;;;;;;3.65;1.90;;;4.00;99.90;;;;;;4993339;28;20045;-69
2021/12/01 02:59:23;;;;;;;2.38;1.80;;;3.90;99.90;;;;;;4991131;28;20027;-69
2021/12/01 03:01:50;;;;;;;2.40;1.90;;;4.00;99.90;;;;;;4978628;28;20031;-69
2021/12/01 03:04:16;;;;;;;2.17;1.90;;;4.00;99.90;;;;;;5054335;28;20143;-70
2021/12/01 03:06:48;;;;;;;1.92;1.73;;;4.00;99.90;;;;;;4982957;28;20038;-70
2021/12/01 03:09:15;;;;;;;3.53;1.88;;;4.00;99.90;;;;;;5000077;28;20514;-72
2021/12/01 03:11:42;;;;;;;1.92;1.77;;;3.90;99.90;;;;;;4985089;28;20030;-69
2021/12/01 03:14:10;;;;;;;2.42;2.22;;;3.90;99.90;;;;;;4980355;28;20476;-73
2021/12/01 03:16:36;;;;;;;2.40;2.03;;;3.90;99.90;;;;;;5048956;28;20045;-72
2021/12/01 03:19:02;;;;;;;2.22;1.98;;;3.90;99.90;;;;;;4979285;28;20041;-70
2021/12/01 03:21:27;;;;;;;3.00;2.28;;;3.90;99.90;;;;;;4981497;28;20034;-69
2021/12/01 03:23:53;;;;;;;2.40;2.20;;;4.00;99.90;;;;;;5066764;28;20050;-69
2021/12/01 03:26:19;;;;;;;2.92;2.00;;;3.90;99.90;;;;;;5048999;28;20042;-70
2021/12/01 03:28:44;;;;;;;2.13;1.92;;;4.00;99.90;;;;;;4972652;28;20517;-71
2021/12/01 03:31:10;;;;;;;2.97;2.17;;;4.00;99.90;;;;;;4972674;28;20023;-69
2021/12/01 03:33:36;;;;;;;3.10;2.33;;;4.00;99.90;;;;;;5041980;28;20034;-70
2021/12/01 03:36:03;;;;;;;2.53;2.30;;;4.00;99.90;;;;;;5069398;28;20027;-69
2021/12/01 03:38:29;;;;;;;2.47;2.22;;;3.90;99.90;;;;;;4986159;28;20026;-70
2021/12/01 03:40:56;;;;;;;2.40;2.20;;;4.00;99.90;;;;;;4984150;28;20579;-73
2021/12/01 03:43:21;;;;;;;2.40;2.00;;;4.00;99.90;;;;;;5042311;28;20391;-69
2021/12/01 03:45:47;;;;;;;2.90;2.60;;;4.00;99.90;;;;;;5050175;28;20026;-70
2021/12/01 03:48:13;;;;;;;2.40;2.20;;;4.00;99.90;;;;;;4975697;28;20041;-70
2021/12/01 03:50:41;;;;;;;3.33;2.58;;;4.00;99.90;;;;;;5047989;28;20030;-70
2021/12/01 03:53:06;;;;;;;2.38;2.17;;;4.00;99.90;;;;;;5037073;28;20100;-69
2021/12/01 03:55:32;;;;;;;5.63;2.20;;;4.00;99.90;;;;;;4985463;28;20478;-70
2021/12/01 03:57:58;;;;;;;2.72;2.53;;;4.00;99.90;;;;;;4975712;28;20023;-69
2021/12/01 04:00:23;;;;;;;2.25;2.08;;;4.10;99.90;;;;;;4976651;28;20031;-69
2021/12/01 04:02:49;;;;;;;2.63;2.10;;;4.10;99.90;;;;;;5048051;28;20101;-71
2021/12/01 04:05:15;;;;;;;2.25;2.05;;;4.10;99.90;;;;;;4976655;28;20149;-69
2021/12/01 04:07:41;;;;;;;2.60;2.10;;;4.10;99.90;;;;;;4979684;28;20049;-72
2021/12/01 04:10:11;;;;;;;1.95;1.75;;;4.20;99.90;;;;;;4990916;28;20030;-70
2021/12/01 04:12:37;;;;;;;4.40;2.08;;;4.20;99.90;;;;;;4982749;28;20521;-69
2021/12/01 04:15:04;;;;;;;2.08;1.65;;;4.20;99.90;;;;;;5053856;28;20033;-70
2021/12/01 04:17:30;;;;;;;1.92;1.73;;;4.20;99.90;;;;;;4988608;28;20042;-70
2021/12/01 04:19:55;;;;;;;1.80;1.70;;;4.20;99.90;;;;;;4991077;28;20027;-70
2021/12/01 04:22:21;;;;;;;1.50;1.40;;;4.20;99.90;;;;;;4985830;28;20022;-70
2021/12/01 04:24:47;;;;;;;1.65;1.55;;;4.20;99.90;;;;;;5060994;28;20054;-69
2021/12/01 04:27:12;;;;;;;1.50;1.40;;;4.30;99.90;;;;;;5001128;28;20156;-70
2021/12/01 04:29:40;;;;;;;1.58;1.33;;;4.30;99.90;;;;;;4994902;28;20023;-70
2021/12/01 04:32:08;;;;;;;1.67;1.50;;;4.30;99.90;;;;;;5076951;28;20486;-70
2021/12/01 04:34:34;;;;;;;1.88;1.27;;;4.30;99.90;;;;;;5026422;28;20028;-70
2021/12/01 04:36:59;;;;;;;2.00;1.58;;;4.30;99.90;;;;;;4983968;28;20072;-70
2021/12/01 04:39:25;;;;;;;1.98;1.45;;;4.30;99.90;;;;;;4982099;28;20030;-69
2021/12/01 04:41:52;;;;;;;1.70;1.42;;;4.30;99.90;;;;;;4982514;28;20041;-71
2021/12/01 04:44:20;;;;;;;1.73;1.40;;;4.30;99.90;;;;;;4983243;28;20152;-71
2021/12/01 04:46:47;;;;;;;2.10;1.30;;;4.40;99.90;;;;;;4976833;28;20064;-70
2021/12/01 04:49:16;;;;;;;1.55;1.45;;;4.40;99.90;;;;;;4987491;28;20508;-71
2021/12/01 04:51:46;;;;;;;2.65;1.25;;;4.40;99.90;;;;;;5075836;28;20069;-70
2021/12/01 04:54:11;;;;;;;3.00;1.52;;;4.40;99.90;;;;;;4980368;28;20330;-70
2021/12/01 04:56:37;;;;;;;1.60;1.50;;;4.40;99.90;;;;;;4986304;28;20030;-72
2021/12/01 04:59:06;;;;;;;1.42;1.33;;;4.50;99.90;;;;;;5017771;28;20084;-70
2021/12/01 05:01:35;;;;;;;1.52;1.42;;;4.50;99.90;;;;;;4989002;28;20097;-71
2021/12/01 05:04:02;;;;;;;1.30;1.23;;;4.50;99.90;;;;;;5048685;28;20084;-71
2021/12/01 05:06:28;;;;;;;1.20;1.10;;;4.50;99.90;;;;;;5062872;28;20366;-70
2021/12/01 05:08:53;;;;;;;2.30;1.33;;;4.50;99.90;;;;;;4976765;28;20026;-69
2021/12/01 05:11:19;;;;;;;1.45;1.17;;;4.50;99.90;;;;;;4982530;28;20383;-70
2021/12/01 05:13:45;;;;;;;1.20;1.10;;;4.60;99.90;;;;;;4982828;28;20087;-69
2021/12/01 05:16:10;;;;;;;1.95;1.20;;;4.60;99.90;;;;;;4980366;28;20047;-70
2021/12/01 05:18:36;;;;;;;1.30;1.20;;;4.60;99.90;;;;;;5054739;28;20042;-70
2021/12/01 05:21:02;;;;;;;1.45;1.00;;;4.60;99.90;;;;;;5055714;28;20106;-70
2021/12/01 05:23:28;;;;;;;3.50;1.20;;;4.60;99.90;;;;;;4983952;28;20038;-70
2021/12/01 05:25:53;;;;;;;1.20;1.10;;;4.70;99.90;;;;;;4993783;28;20114;-71
2021/12/01 05:28:19;;;;;;;1.85;1.10;;;4.70;99.90;;;;;;4989508;28;20474;-71
2021/12/01 05:30:45;;;;;;;1.40;0.98;;;4.70;99.90;;;;;;4983497;28;20034;-70
2021/12/01 05:33:14;;;;;;;1.10;1.00;;;4.70;99.90;;;;;;5057588;28;20057;-70
2021/12/01 05:35:41;;;;;;;1.40;1.30;;;4.80;99.90;;;;;;4985311;28;20026;-70
2021/12/01 05:38:07;;;;;;;0.80;0.80;;;4.80;99.90;;;;;;4989812;28;20022;-70
2021/12/01 05:40:32;;;;;;;0.98;0.85;;;4.80;99.90;;;;;;4988649;28;20414;-71
2021/12/01 05:42:59;;;;;;;0.88;0.88;;;4.80;99.90;;;;;;5042778;28;20034;-70
2021/12/01 05:45:25;;;;;;;1.27;1.17;;;4.80;99.90;;;;;;5072324;28;20034;-70
2021/12/01 05:47:51;;;;;;;1.17;1.10;;;4.80;99.90;;;;;;4988563;28;20378;-71
2021/12/01 05:50:17;;;;;;;0.98;0.98;;;4.80;99.90;;;;;;4984021;28;20028;-70
2021/12/01 05:52:43;;;;;;;1.05;0.90;;;4.80;99.90;;;;;;4981705;28;20043;-70
2021/12/01 05:55:09;;;;;;;1.25;1.13;;;4.80;99.90;;;;;;4989774;28;20485;-71
2021/12/01 05:57:35;;;;;;;1.23;0.90;;;4.80;99.90;;;;;;5051650;28;20022;-71
2021/12/01 06:00:04;;;;;;;1.40;0.95;;;4.80;99.90;;;;;;4989454;28;20069;-71
2021/12/01 06:02:29;;;;;;;1.92;1.13;;;4.80;99.90;;;;;;4987882;28;20095;-70
2021/12/01 06:04:55;;;;;;;1.00;1.00;;;4.90;99.90;;;;;;4981942;28;20367;-70
2021/12/01 06:07:21;;;;;;;1.45;0.90;;;4.90;99.90;;;;;;4981444;28;20367;-71
2021/12/01 06:09:46;;;;;;;1.25;1.15;;;4.90;99.90;;;;;;4976057;28;20069;-71
2021/12/01 06:12:13;;;;;;;1.25;1.15;;;4.90;99.90;;;;;;4986963;28;20049;-70
2021/12/01 06:14:41;;;;;;;1.00;0.90;;;4.90;99.90;;;;;;5048889;28;20108;-70
2021/12/01 06:17:09;;;;;;;2.15;1.00;;;4.90;99.90;;;;;;4987202;28;20488;-71
2021/12/01 06:19:34;;;;;;;1.52;1.00;;;4.90;99.90;;;;;;4977884;28;20540;-70
2021/12/01 06:22:00;;;;;;;0.70;0.70;;;4.90;99.90;;;;;;5021584;28;20027;-71
2021/12/01 06:24:26;;;;;;;2.40;1.08;;;4.90;99.90;;;;;;4981045;28;20054;-70
2021/12/01 06:26:52;;;;;;;1.10;1.00;;;4.90;99.90;;;;;;4980030;28;20061;-70
2021/12/01 06:29:17;;;;;;;2.00;1.00;;;4.90;99.90;;;;;;4990821;28;20378;-70
2021/12/01 06:31:44;;;;;;;1.95;1.73;;;4.90;99.90;;;;;;5048313;28;20135;-70
2021/12/01 06:34:10;;;;;;;2.90;2.00;;;5.00;99.90;;;;;;5044637;28;20119;-71
2021/12/01 06:36:35;;;;;;;1.17;1.08;;;5.00;99.90;;;;;;5002567;28;20042;-72
2021/12/01 06:39:03;;;;;;;1.13;0.88;;;5.00;99.90;;;;;;4989290;28;20026;-73
2021/12/01 06:41:29;;;;;;;3.85;2.42;;;5.00;99.90;;;;;;5062146;28;20026;-70
2021/12/01 06:43:54;;;;;;;2.10;1.30;;;5.00;99.90;;;;;;4986384;28;20091;-69
2021/12/01 06:46:21;;;;;;;0.80;0.80;;;5.00;99.90;;;;;;5050232;28;20036;-69
2021/12/01 06:48:46;;;;;;;1.08;0.90;;;5.00;99.90;;;;;;5053210;28;20034;-71
2021/12/01 06:51:12;;;;;;;2.58;2.13;;;5.10;99.90;;;;;;4986667;28;20030;-70
2021/12/01 06:53:38;;;;;;;1.20;0.73;;;5.10;99.90;;;;;;4982624;28;20504;-73
2021/12/01 06:56:04;;;;;;;1.00;1.00;;;5.10;99.90;;;;;;4988801;28;20029;-71
2021/12/01 06:58:29;;;;;;;0.95;0.90;;;5.10;99.90;;;;;;4974789;28;20046;-69
2021/12/01 07:00:55;;;;;;;1.38;1.27;;;5.20;99.90;;;;;;4981953;28;20027;-70
2021/12/01 07:03:20;;;;;;;1.40;1.17;;;5.20;99.90;;;;;;4974707;28;20031;-70
2021/12/01 07:05:46;;;;;;;1.60;1.50;;;5.20;99.90;;;;;;4982568;28;20716;-73
2021/12/01 07:08:11;;;;;;;1.80;1.00;;;5.20;99.90;;;;;;4988649;28;20041;-70
2021/12/01 07:10:37;;;;;;;0.85;0.85;;;5.20;99.90;;;;;;4989131;28;20030;-69
2021/12/01 07:13:03;;;;;;;1.25;0.95;;;5.30;99.90;;;;;;4989519;28;20030;-71
2021/12/01 07:15:28;;;;;;;1.20;0.80;;;5.30;99.90;;;;;;4988032;28;20026;-71
2021/12/01 07:17:54;;;;;;;2.38;1.30;;;5.40;99.90;;;;;;4986043;28;20032;-70
2021/12/01 07:20:19;;;;;;;2.53;0.80;;;5.40;99.90;;;;;;4978259;28;20087;-70
2021/12/01 07:22:45;;;;;;;0.68;0.68;;;5.40;99.90;;;;;;4989474;28;20038;-69
2021/12/01 07:25:12;;;;;;;0.60;0.60;;;5.50;99.90;;;;;;5051146;28;20039;-71
2021/12/01 07:27:38;;;;;;;1.40;0.50;;;5.50;99.90;;;;;;4977890;28;20027;-69
2021/12/01 07:30:05;;;;;;;2.28;0.57;;;5.50;99.90;;;;;;4988304;28;20397;-70
2021/12/01 07:32:30;;;;;;;0.70;0.70;;;5.60;99.90;;;;;;5072603;28;20030;-70
2021/12/01 07:34:57;;;;;;;0.60;0.60;;;5.60;99.90;;;;;;4988472;28;20426;-69
2021/12/01 07:37:23;;;;;;;1.50;1.08;;;5.60;99.90;;;;;;5057641;28;20030;-70
2021/12/01 07:39:49;;;;;;;0.77;0.75;;;5.70;99.90;;;;;;4987356;28;20494;-70
2021/12/01 07:42:15;;;;;;;0.60;0.60;;;5.70;99.90;;;;;;5036198;28;20026;-72
2021/12/01 07:44:41;;;;;;;1.65;0.70;;;5.80;99.90;;;;;;5035580;28;20524;-71
2021/12/01 07:47:08;;;;;;;2.03;0.60;;;5.90;99.90;;;;;;5046061;28;20075;-68
2021/12/01 07:49:34;;;;;;;1.65;0.80;;;5.90;99.90;;;;;;5071898;28;20112;-70
2021/12/01 07:52:00;;;;;;;0.60;0.60;;;5.90;99.90;;;;;;5008139;28;20056;-70
2021/12/01 07:54:26;;;;;;;0.73;0.65;;;6.00;99.90;;;;;;5074692;28;20061;-70
2021/12/01 07:56:52;;;;;;;1.48;0.60;;;5.90;99.90;;;;;;4976309;28;20505;-72
2021/12/01 07:59:17;;;;;;;2.17;0.50;;;6.00;99.90;;;;;;4984303;28;20105;-73
2021/12/01 08:01:44;;;;;;;0.55;0.43;;;6.00;99.90;;;;;;5003410;28;20050;-69
2021/12/01 08:04:11;;;;;;;0.75;0.50;;;6.00;99.90;;;;;;5035548;28;20050;-66
2021/12/01 08:06:37;;;;;;;1.67;0.50;;;6.10;99.90;;;;;;4971571;28;20113;-70
2021/12/01 08:09:04;;;;;;;0.40;0.40;;;6.10;99.90;;;;;;4987817;28;20458;-69
2021/12/01 08:11:29;;;;;;;2.08;0.40;;;6.10;99.90;;;;;;4988595;28;20071;-70
2021/12/01 08:13:55;;;;;;;2.42;0.77;;;6.10;99.90;;;;;;4987985;28;20030;-70
2021/12/01 08:16:21;;;;;;;0.77;0.50;;;6.20;99.90;;;;;;5055642;28;20072;-69
2021/12/01 08:18:51;;;;;;;0.65;0.65;;;6.20;99.90;;;;;;4987706;28;20026;-68
2021/12/01 08:21:17;;;;;;;4.32;0.65;;;6.20;99.90;;;;;;4987898;28;20102;-69
2021/12/01 08:23:43;;;;;;;1.42;0.50;;;6.30;99.90;;;;;;4988374;28;20031;-68
2021/12/01 08:26:09;;;;;;;0.47;0.47;;;6.20;99.90;;;;;;4975732;28;20027;-69
2021/12/01 08:28:35;;;;;;;1.70;0.70;;;6.30;99.90;;;;;;4968661;28;20062;-70
2021/12/01 08:31:00;;;;;;;0.68;0.60;;;6.40;99.90;;;;;;5054640;28;20481;-71
2021/12/01 08:33:26;;;;;;;2.17;0.50;;;6.50;99.90;;;;;;4987794;28;20433;-69
2021/12/01 08:36:18;;;;;;;0.50;0.50;;;6.50;99.90;;;;;;4988132;28;20057;-70
2021/12/01 08:38:44;;;;;;;1.08;0.90;;;6.50;99.90;;;;;;5054694;28;20083;-70
2021/12/01 08:41:10;;;;;;;0.68;0.68;;;6.50;99.90;;;;;;5054800;28;20031;-69
2021/12/01 08:43:36;;;;;;;0.63;0.60;;;6.60;99.90;;;;;;4987524;28;20034;-69
2021/12/01 08:46:03;;;;;;;2.17;0.40;;;6.60;99.90;;;;;;5053073;28;20019;-69
2021/12/01 08:48:29;;;;;;;0.50;0.50;;;6.70;99.90;;;;;;4987388;28;20034;-72
2021/12/01 08:50:56;;;;;;;1.35;0.70;;;6.70;99.90;;;;;;5051582;28;20130;-72
2021/12/01 08:53:25;;;;;;;0.40;0.40;;;6.70;99.90;;;;;;4968866;28;20027;-70
2021/12/01 08:58:19;;;;;;;0.57;0.40;;;6.80;99.90;;;;;;5059482;28;20508;-68
2021/12/01 09:00:46;;;;;;;0.95;0.50;;;6.90;99.90;;;;;;5069465;28;20016;-68
2021/12/01 09:03:16;;;;;;;0.32;0.32;;;6.90;99.90;;;;;;5062979;28;20085;-68
2021/12/01 09:05:44;;;;;;;0.88;0.80;;;7.00;99.90;;;;;;5060150;28;20377;-68
2021/12/01 09:08:10;;;;;;;0.40;0.40;;;7.00;99.90;;;;;;5042917;28;20023;-68
2021/12/01 09:10:36;;;;;;;0.52;0.40;;;7.10;99.90;;;;;;5071985;28;20074;-69
2021/12/01 09:13:03;;;;;;;0.50;0.50;;;7.10;99.90;;;;;;5055304;28;20028;-70
2021/12/01 09:15:29;;;;;;;1.13;0.88;;;7.20;99.90;;;;;;5072933;28;20468;-68
2021/12/01 09:17:56;;;;;;;1.15;0.90;;;7.20;99.90;;;;;;5059941;28;20078;-68
2021/12/01 09:20:22;;;;;;;0.45;0.45;;;7.30;99.90;;;;;;5063009;28;20377;-69
2021/12/01 09:22:48;;;;;;;0.30;0.30;;;7.30;99.90;;;;;;5053488;28;20024;-70
2021/12/01 09:25:13;;;;;;;0.30;0.30;;;7.30;99.90;;;;;;5060413;28;20037;-69
2021/12/01 09:27:39;;;;;;;1.20;0.50;;;7.40;99.90;;;;;;5052778;28;20029;-68
2021/12/01 09:30:06;;;;;;;0.65;0.38;;;7.40;99.90;;;;;;5063869;28;20097;-68
2021/12/01 09:32:35;;;;;;;0.38;0.38;;;7.40;99.90;;;;;;5071550;28;20027;-69
2021/12/01 09:35:01;;;;;;;0.50;0.50;;;7.40;99.90;;;;;;5050196;28;20107;-69
2021/12/01 09:37:27;;;;;;;0.50;0.50;;;7.40;99.90;;;;;;5049003;28;20116;-68
2021/12/01 09:39:53;;;;;;;1.83;1.55;;;7.40;99.90;;;;;;5064786;28;20115;-69
2021/12/01 09:42:19;;;;;;;0.40;0.40;;;7.40;99.90;;;;;;5063535;28;20019;-69
2021/12/01 09:44:45;;;;;;;0.55;0.55;;;7.40;99.90;;;;;;5068693;28;20577;-70
2021/12/01 09:47:11;;;;;;;0.40;0.40;;;7.50;99.90;;;;;;5060710;28;20031;-70
2021/12/01 09:49:36;;;;;;;0.70;0.70;;;7.50;99.90;;;;;;5069261;28;20017;-71
2021/12/01 09:52:03;;;;;;;3.08;1.15;;;7.50;99.90;;;;;;5049776;28;20060;-68
2021/12/01 09:54:28;;;;;;;0.80;0.80;;;7.50;99.90;;;;;;5072390;28;20048;-73
2021/12/01 09:56:54;;;;;;;1.20;0.65;;;7.50;99.90;;;;;;5070356;28;20024;-68
2021/12/01 09:59:19;;;;;;;6.50;3.63;;;7.50;99.90;;;;;;5064082;28;20053;-68
2021/12/01 10:01:45;;;;;;;4.00;2.70;;;7.50;99.90;;;;;;5042706;28;20082;-69
2021/12/01 10:04:11;;;;;;;1.20;1.15;;;7.50;99.90;;;;;;5053714;28;20060;-69
2021/12/01 10:06:36;;;;;;;0.38;0.38;;;7.50;99.90;;;;;;5054585;28;20028;-70
2021/12/01 10:09:05;;;;;;;8.15;3.42;;;7.60;99.90;;;;;;5055094;28;20501;-69
2021/12/01 10:11:34;;;;;;;0.68;0.57;;;7.50;99.90;;;;;;5056269;28;20032;-69
2021/12/01 10:14:04;;;;;;;0.40;0.40;;;7.60;99.90;;;;;;5058682;28;20451;-71
2021/12/01 10:16:35;;;;;;;0.55;0.55;;;7.60;99.90;;;;;;5053907;28;20039;-70
2021/12/01 10:19:05;;;;;;;0.73;0.70;;;7.70;99.90;;;;;;5073909;28;20048;-69
2021/12/01 10:21:45;;;;;;;0.70;0.60;;;7.70;99.90;;;;;;5072263;28;20342;-70
2021/12/01 10:24:14;;;;;;;0.60;0.60;;;7.70;99.90;;;;;;5072505;28;20024;-70
2021/12/01 10:26:44;;;;;;;1.05;0.82;;;7.80;99.90;;;;;;5069075;28;20040;-70
2021/12/01 10:29:13;;;;;;;1.75;1.55;;;7.80;99.90;;;;;;5069493;28;20059;-69
2021/12/01 10:31:46;;;;;;;3.38;2.40;;;7.80;99.90;;;;;;5068228;28;20120;-70
2021/12/01 10:34:26;;;;;;;1.00;0.85;;;7.90;99.90;;;;;;5058703;28;20095;-70
2021/12/01 10:37:15;;;;;;;1.00;1.00;;;7.90;99.90;;;;;;5071581;28;20028;-70
2021/12/01 10:39:44;;;;;;;2.13;1.60;;;8.00;99.90;;;;;;5060080;28;20396;-70
2021/12/01 10:42:17;;;;;;;3.63;2.90;;;8.00;99.90;;;;;;5060349;28;20384;-70
2021/12/01 10:44:56;;;;;;;;;;;8.00;99.90;;;;;;5053834;28;20101;-69
2021/12/01 10:47:22;;;;;;;0.80;0.50;;;8.10;99.90;;;;;;5071595;28;20352;-71
2021/12/01 10:49:47;;;;;;;0.20;0.20;;;8.00;99.90;;;;;;5071390;28;20025;-69
2021/12/01 10:52:33;;;;;;;0.50;0.40;;;8.10;99.90;;;;;;5071601;28;20036;-70
2021/12/01 10:55:13;;;;;;;0.63;0.30;;;8.10;99.90;;;;;;5071254;28;20017;-69
2021/12/01 10:57:44;;;;;;;0.30;0.30;;;8.10;99.90;;;;;;5054173;28;20040;-69
2021/12/01 11:00:18;;;;;;;1.40;0.40;;;8.20;99.90;;;;;;5058045;28;20043;-70
2021/12/01 11:02:45;;;;;;;0.20;0.20;;;8.20;99.90;;;;;;5056135;28;20362;-70
2021/12/01 11:05:28;;;;;;;0.90;0.90;;;8.30;99.90;;;;;;5069538;28;20102;-73
2021/12/01 11:07:54;;;;;;;1.55;0.65;;;8.30;99.90;;;;;;5071875;28;20393;-68
2021/12/01 11:10:22;;;;;;;0.63;0.63;;;8.30;99.90;;;;;;5072831;28;20029;-68
2021/12/01 11:13:02;;;;;;;0.40;0.40;;;8.30;99.90;;;;;;5071137;28;20033;-68
2021/12/01 11:15:42;;;;;;;0.30;0.30;;;8.30;99.90;;;;;;5071912;28;20024;-69
2021/12/01 11:18:16;;;;;;;1.02;0.60;;;8.30;99.90;;;;;;5052826;28;20542;-69
2021/12/01 11:20:53;;;;;;;0.60;0.50;;;8.30;99.90;;;;;;5060394;28;20020;-70
2021/12/01 11:23:30;;;;;;;0.40;0.40;;;8.40;99.90;;;;;;5071356;28;20032;-70
2021/12/01 11:26:16;;;;;;;0.40;0.40;;;8.40;99.90;;;;;;5049962;28;20048;-70
2021/12/01 11:28:56;;;;;;;0.75;0.40;;;8.40;99.90;;;;;;5067004;28;20105;-70
2021/12/01 11:31:24;;;;;;;0.40;0.40;;;8.40;99.90;;;;;;5070679;28;20472;-67
2021/12/01 11:33:55;;;;;;;1.30;0.40;;;8.40;99.90;;;;;;5070649;28;20025;-71
2021/12/01 11:36:23;;;;;;;1.48;1.38;;;8.40;99.90;;;;;;5074587;28;20020;-68
2021/12/01 11:38:54;;;;;;;0.55;0.55;;;8.40;99.90;;;;;;5068496;28;20476;-68
2021/12/01 11:41:20;;;;;;;1.25;0.50;;;8.40;99.90;;;;;;5067690;28;20016;-68
2021/12/01 11:43:47;;;;;;;1.40;0.52;;;8.40;99.90;;;;;;5067433;28;20078;-66
2021/12/01 11:46:14;;;;;;;0.90;0.90;;;8.40;99.90;;;;;;5063991;28;20031;-67
2021/12/01 11:48:51;;;;;;;2.47;0.30;;;8.40;99.90;;;;;;5069811;28;20081;-68
2021/12/01 11:51:27;;;;;;;0.35;0.30;;;8.40;99.90;;;;;;5067399;28;20090;-68
2021/12/01 11:53:57;;;;;;;1.02;0.50;;;8.40;99.90;;;;;;5070001;28;20108;-68
2021/12/01 11:56:28;;;;;;;1.65;0.57;;;8.30;99.90;;;;;;5068248;28;20391;-68
2021/12/01 11:59:15;;;;;;;0.77;0.57;;;8.30;99.90;;;;;;5061229;28;20055;-67
2021/12/01 12:01:47;;;;;;;0.70;0.70;;;8.30;99.90;;;;;;5052645;28;20028;-68
2021/12/01 12:04:12;;;;;;;0.40;0.40;;;8.30;99.90;;;;;;5069654;28;20020;-67
2021/12/01 12:06:49;;;;;;;0.47;0.47;;;8.40;99.90;;;;;;5069881;28;20029;-70
2021/12/01 12:09:20;;;;;;;1.08;0.73;;;8.30;99.90;;;;;;5069656;28;20035;-68
2021/12/01 12:11:56;;;;;;;0.50;0.50;;;8.30;99.90;;;;;;5070090;28;20021;-68
2021/12/01 12:14:30;;;;;;;0.95;0.60;;;8.30;99.90;;;;;;5051689;28;20310;-68
2021/12/01 12:17:14;;;;;;;2.15;1.10;;;8.30;99.90;;;;;;5059285;28;20045;-68
2021/12/01 12:19:43;;;;;;;1.23;0.90;;;8.30;99.90;;;;;;5068923;28;20100;-68
2021/12/01 12:22:13;;;;;;;0.60;0.60;;;8.30;99.90;;;;;;5070640;28;20078;-68
2021/12/01 12:24:55;;;;;;;0.73;0.57;;;8.30;99.90;;;;;;5069568;28;20404;-72
2021/12/01 12:27:36;;;;;;;;;;;8.20;99.90;;;;;;5069641;28;20025;-69
2021/12/01 12:30:15;;;;;;;0.65;0.65;;;8.20;99.90;;;;;;5070061;28;19908;-69
2021/12/01 12:32:44;;;;;;;2.33;0.50;;;8.20;99.90;;;;;;5070744;28;20116;-68
2021/12/01 12:35:14;;;;;;;0.50;0.50;;;8.10;99.90;;;;;;5069649;28;20100;-69
2021/12/01 12:37:41;;;;;;;0.70;0.70;;;8.10;99.90;;;;;;5069951;28;20052;-70
2021/12/01 12:40:30;;;;;;;0.50;0.50;;;8.10;99.90;;;;;;5071814;28;20472;-70
2021/12/01 12:43:14;;;;;;;0.70;0.70;;;8.10;99.90;;;;;;5074172;28;20039;-69
2021/12/01 12:45:59;;;;;;;0.40;0.40;;;8.10;99.90;;;;;;5053953;28;20443;-69
2021/12/01 12:48:36;;;;;;;0.40;0.40;;;8.00;99.90;;;;;;5059183;28;20024;-69
2021/12/01 12:51:24;;;;;;;1.52;0.40;;;8.00;99.90;;;;;;5073716;28;20487;-70
2021/12/01 12:53:59;;;;;;;0.30;0.30;;;8.00;99.90;;;;;;5055888;28;20115;-69
2021/12/01 12:56:34;;;;;;;0.73;0.73;;;8.00;99.90;;;;;;5070579;28;20487;-70
2021/12/01 12:59:21;;;;;;;0.50;0.50;;;8.00;99.90;;;;;;5073057;28;20016;-68
2021/12/01 13:01:49;;;;;;;0.85;0.50;;;8.00;99.90;;;;;;5056069;28;20392;-69
2021/12/01 13:05:02;;;;;;;0.50;0.50;;;8.00;99.90;;;;;;5072807;28;20033;-70
2021/12/01 13:07:47;;;;;;;0.75;0.57;;;8.10;99.90;;;;;;5055205;28;20093;-69
2021/12/01 13:10:26;;;;;;;0.50;0.50;;;8.10;99.90;;;;;;5073207;28;20037;-69
2021/12/01 13:13:00;;;;;;;0.43;0.43;;;8.10;99.90;;;;;;5073145;28;20444;-68
2021/12/01 13:15:30;;;;;;;0.73;0.38;;;8.10;99.90;;;;;;5073400;28;20438;-69